createdAt,value
2022-10-22T00:01:02.213Z,78.84
2022-10-22T00:03:29.173Z,79.12
2022-10-22T00:05:56.235Z,79.00
2022-10-22T00:08:23.064Z,78.70
2022-10-22T00:10:49.984Z,78.34
2022-10-22T00:13:17.145Z,78.40
2022-10-22T00:15:44.036Z,78.19
2022-10-22T00:18:10.929Z,78.38
2022-10-22T00:20:37.835Z,78.36
2022-10-22T00:23:04.841Z,78.17
2022-10-22T00:25:34.077Z,78.17
2022-10-22T00:28:01.122Z,77.94
2022-10-22T00:30:28.044Z,77.83
2022-10-22T00:32:54.851Z,77.52
2022-10-22T00:35:21.747Z,76.96
2022-10-22T00:37:48.770Z,77.55
2022-10-22T00:40:15.609Z,77.29
2022-10-22T00:42:42.871Z,78.10
2022-10-22T00:45:09.998Z,78.81
2022-10-22T00:47:45.252Z,78.77
2022-10-22T00:50:17.689Z,79.03
2022-10-22T00:52:44.865Z,79.09
2022-10-22T00:55:12.437Z,78.26
2022-10-22T00:57:39.560Z,78.21
2022-10-22T01:00:06.962Z,77.95
2022-10-22T01:02:34.406Z,78.00
2022-10-22T01:05:01.452Z,77.95
2022-10-22T01:07:28.533Z,78.93
2022-10-22T01:10:32.790Z,79.64
2022-10-22T01:13:23.883Z,79.23
2022-10-22T01:16:17.994Z,79.97
2022-10-22T01:19:28.954Z,79.92
2022-10-22T01:22:24.439Z,79.57
2022-10-22T01:25:16.635Z,80.23
2022-10-22T01:28:12.675Z,79.45
2022-10-22T01:30:40.805Z,79.14
2022-10-22T01:33:11.566Z,79.04
2022-10-22T01:35:43.268Z,79.04
2022-10-22T01:38:15.033Z,79.99
2022-10-22T01:40:43.213Z,79.75
2022-10-22T01:43:11.577Z,79.49
2022-10-22T01:45:59.205Z,79.57
2022-10-22T01:48:50.239Z,78.77
2022-10-22T01:51:41.415Z,78.63
2022-10-22T01:54:40.534Z,78.26
2022-10-22T01:57:12.450Z,78.52
2022-10-22T02:00:13.744Z,78.76
2022-10-22T02:05:22.562Z,78.98
2022-10-22T02:07:54.420Z,79.19
2022-10-22T02:10:23.285Z,79.17
2022-10-22T02:12:53.333Z,78.88
2022-10-22T02:15:22.433Z,78.98
2022-10-22T02:17:50.813Z,79.28
2022-10-22T02:20:22.806Z,79.69
2022-10-22T02:22:50.199Z,79.90
2022-10-22T02:25:17.304Z,79.87
2022-10-22T02:27:50.124Z,80.18
2022-10-22T02:30:22.242Z,80.17
2022-10-22T02:33:07.732Z,80.24
2022-10-22T02:35:36.315Z,80.60
2022-10-22T02:38:04.020Z,80.64
2022-10-22T02:40:31.499Z,80.89
2022-10-22T02:42:58.295Z,81.17
2022-10-22T02:45:25.443Z,81.59
2022-10-22T02:47:52.503Z,81.76
2022-10-22T02:50:19.244Z,81.61
2022-10-22T02:52:46.041Z,81.56
2022-10-22T02:55:12.863Z,82.34
2022-10-22T02:57:39.908Z,82.14
2022-10-22T03:00:08.671Z,82.44
2022-10-22T03:02:35.483Z,82.78
2022-10-22T03:05:02.501Z,83.11
2022-10-22T03:07:29.447Z,83.33
2022-10-22T03:09:56.263Z,83.57
2022-10-22T03:12:23.136Z,83.96
2022-10-22T03:14:49.924Z,83.80
2022-10-22T03:17:16.710Z,84.18
2022-10-22T03:19:45.945Z,84.91
2022-10-22T03:22:20.332Z,85.01
2022-10-22T03:24:53.470Z,85.42
2022-10-22T03:27:22.226Z,85.64
2022-10-22T03:29:51.596Z,86.24
2022-10-22T03:32:18.805Z,86.54
2022-10-22T03:34:45.718Z,86.77
2022-10-22T03:37:12.725Z,86.91
2022-10-22T03:39:40.220Z,87.52
2022-10-22T03:42:08.051Z,87.65
2022-10-22T03:44:38.353Z,87.78
2022-10-22T03:47:05.669Z,88.32
2022-10-22T03:49:32.824Z,88.06
2022-10-22T03:52:08.869Z,87.94
2022-10-22T03:54:36.264Z,88.28
2022-10-22T03:57:04.796Z,88.42
2022-10-22T03:59:36.779Z,88.96
2022-10-22T04:02:03.979Z,89.01
2022-10-22T04:04:31.174Z,89.05
2022-10-22T04:06:58.053Z,89.04
2022-10-22T04:09:25.034Z,88.99
2022-10-22T04:11:51.779Z,89.08
2022-10-22T04:14:18.588Z,89.18
2022-10-22T04:16:45.393Z,89.28
2022-10-22T04:19:13.275Z,89.48
2022-10-22T04:21:40.093Z,89.62
2022-10-22T04:24:07.093Z,89.96
2022-10-22T04:26:33.934Z,90.27
2022-10-22T04:29:00.798Z,90.27
2022-10-22T04:31:27.863Z,90.55
2022-10-22T04:33:57.450Z,90.77
2022-10-22T04:36:25.585Z,90.87
2022-10-22T04:38:55.342Z,91.92
2022-10-22T04:41:29.844Z,91.60
2022-10-22T04:43:57.818Z,91.51
2022-10-22T04:46:28.783Z,91.70
2022-10-22T04:48:55.576Z,91.81
2022-10-22T04:51:24.158Z,92.05
2022-10-22T04:53:51.136Z,92.14
2022-10-22T04:56:21.091Z,92.32
2022-10-22T04:58:50.283Z,92.42
2022-10-22T05:01:22.937Z,92.64
2022-10-22T05:03:51.470Z,92.68
2022-10-22T05:06:20.983Z,92.80
2022-10-22T05:08:52.101Z,93.01
2022-10-22T05:11:24.781Z,92.73
2022-10-22T05:13:51.746Z,92.64
2022-10-22T05:16:18.465Z,92.70
2022-10-22T05:18:45.956Z,92.57
2022-10-22T05:21:15.401Z,92.60
2022-10-22T05:23:43.868Z,92.75
2022-10-22T05:26:12.881Z,92.85
2022-10-22T05:28:40.368Z,92.92
2022-10-22T05:31:10.344Z,93.06
2022-10-22T05:33:37.214Z,93.47
2022-10-22T05:36:06.883Z,93.81
2022-10-22T05:38:35.646Z,93.65
2022-10-22T05:41:16.937Z,93.68
2022-10-22T05:43:44.132Z,93.53
2022-10-22T05:46:14.991Z,93.22
2022-10-22T05:48:44.745Z,93.35
2022-10-22T05:51:13.672Z,93.26
2022-10-22T05:53:42.380Z,93.45
2022-10-22T05:56:13.739Z,93.27
2022-10-22T05:58:40.838Z,93.42
2022-10-22T06:01:16.055Z,93.35
2022-10-22T06:03:44.391Z,93.58
2022-10-22T06:06:31.808Z,93.31
2022-10-22T06:09:03.722Z,93.38
2022-10-22T06:11:34.157Z,93.08
2022-10-22T06:14:02.634Z,92.67
2022-10-22T06:16:30.559Z,92.87
2022-10-22T06:19:00.348Z,92.81
2022-10-22T06:21:27.464Z,92.48
2022-10-22T06:23:58.455Z,92.34
2022-10-22T06:26:25.345Z,92.14
2022-10-22T06:28:52.170Z,91.93
2022-10-22T06:31:18.936Z,91.51
2022-10-22T06:33:45.665Z,91.27
2022-10-22T06:36:15.600Z,90.86
2022-10-22T06:38:43.048Z,90.77
2022-10-22T06:41:15.754Z,90.32
2022-10-22T06:43:46.939Z,89.58
2022-10-22T06:46:20.683Z,88.45
2022-10-22T06:48:56.241Z,87.67
2022-10-22T06:51:23.240Z,86.80
2022-10-22T06:53:50.369Z,86.13
2022-10-22T06:56:23.097Z,85.57
2022-10-22T06:58:51.254Z,85.07
2022-10-22T07:01:20.922Z,84.07
2022-10-22T07:03:49.870Z,82.95
2022-10-22T07:06:16.799Z,82.26
2022-10-22T07:08:43.963Z,81.95
2022-10-22T07:11:14.317Z,81.51
2022-10-22T07:13:41.477Z,81.44
2022-10-22T07:16:09.137Z,81.77
2022-10-22T07:18:37.348Z,81.82
2022-10-22T07:21:05.643Z,81.10
2022-10-22T07:23:32.686Z,81.04
2022-10-22T07:25:59.552Z,81.11
2022-10-22T07:28:28.068Z,80.74
2022-10-22T07:30:55.072Z,81.32
2022-10-22T07:33:22.275Z,80.88
2022-10-22T07:35:49.207Z,81.08
2022-10-22T07:38:15.938Z,80.05
2022-10-22T07:40:42.770Z,80.33
2022-10-22T07:43:10.955Z,79.68
2022-10-22T07:45:37.840Z,79.90
2022-10-22T07:48:05.014Z,79.86
2022-10-22T07:50:31.898Z,78.98
2022-10-22T07:52:58.768Z,78.83
2022-10-22T07:55:26.065Z,78.05
2022-10-22T07:57:53.484Z,77.55
2022-10-22T08:00:23.125Z,75.99
2022-10-22T08:02:52.138Z,73.72
2022-10-22T08:05:19.037Z,71.04
2022-10-22T08:07:45.968Z,67.00
2022-10-22T08:10:13.465Z,65.44
2022-10-22T08:12:41.468Z,60.99
2022-10-22T08:15:09.713Z,62.62
2022-10-22T08:17:36.672Z,62.38
2022-10-22T08:20:03.915Z,59.22
2022-10-22T08:22:30.851Z,59.51
2022-10-22T08:24:57.669Z,60.78
2022-10-22T08:27:24.442Z,56.79
2022-10-22T08:29:51.327Z,58.17
2022-10-22T08:32:18.127Z,58.76
2022-10-22T08:34:44.943Z,58.45
2022-10-22T08:37:14.467Z,57.79
2022-10-22T08:39:41.616Z,58.23
2022-10-22T08:42:26.545Z,58.56
2022-10-22T08:45:12.973Z,58.07
2022-10-22T08:48:12.176Z,57.13
2022-10-22T08:50:45.499Z,57.37
2022-10-22T08:53:16.304Z,58.00
2022-10-22T08:55:43.789Z,59.02
2022-10-22T08:58:35.967Z,58.24
2022-10-22T09:01:21.155Z,58.51
2022-10-22T09:03:53.702Z,59.46
2022-10-22T09:06:24.442Z,59.89
2022-10-22T09:08:53.381Z,60.21
2022-10-22T09:11:27.269Z,61.42
2022-10-22T09:13:55.595Z,61.92
2022-10-22T09:16:26.513Z,62.19
2022-10-22T09:19:18.223Z,62.61
2022-10-22T09:22:12.695Z,62.14
2022-10-22T09:24:48.755Z,62.26
2022-10-22T09:27:19.238Z,62.61
2022-10-22T09:29:47.873Z,63.11
2022-10-22T09:32:16.874Z,62.96
2022-10-22T09:34:48.120Z,63.51
2022-10-22T09:37:18.454Z,62.96
2022-10-22T09:39:53.604Z,62.78
2022-10-22T09:42:21.329Z,61.71
2022-10-22T09:44:58.850Z,61.39
2022-10-22T09:47:43.005Z,59.75
2022-10-22T09:50:38.407Z,59.70
2022-10-22T09:53:38.578Z,59.05
2022-10-22T09:56:27.920Z,59.40
2022-10-22T09:58:58.793Z,59.03
2022-10-22T10:01:29.800Z,59.14
2022-10-22T10:04:09.913Z,59.56
2022-10-22T10:06:41.940Z,59.50
2022-10-22T10:09:21.551Z,60.78
2022-10-22T10:12:42.812Z,60.56
2022-10-22T10:15:46.524Z,60.32
2022-10-22T10:18:44.315Z,60.93
2022-10-22T10:21:29.684Z,60.69
2022-10-22T10:24:17.341Z,60.93
2022-10-22T10:27:00.135Z,61.23
2022-10-22T10:29:49.693Z,60.35
2022-10-22T10:32:48.323Z,60.59
2022-10-22T10:35:24.333Z,59.71
2022-10-22T10:38:05.111Z,59.36
2022-10-22T10:40:39.538Z,59.45
2022-10-22T10:43:21.175Z,59.35
2022-10-22T10:46:37.211Z,59.97
2022-10-22T10:49:04.078Z,60.35
2022-10-22T10:51:48.698Z,60.75
2022-10-22T10:54:24.309Z,61.35
2022-10-22T10:56:56.621Z,61.94
2022-10-22T10:59:39.179Z,63.04
2022-10-22T11:02:24.958Z,62.87
2022-10-22T11:05:28.886Z,63.10
2022-10-22T11:08:10.216Z,64.70
2022-10-22T11:10:39.790Z,64.22
2022-10-22T11:13:14.405Z,63.79
2022-10-22T11:15:43.230Z,63.49
2022-10-22T11:18:27.575Z,63.04
2022-10-22T11:21:10.968Z,63.03
2022-10-22T11:23:51.557Z,63.08
2022-10-22T11:26:37.418Z,63.19
2022-10-22T11:29:09.686Z,63.81
2022-10-22T11:31:37.086Z,63.07
2022-10-22T11:34:35.045Z,62.60
2022-10-22T11:37:04.908Z,62.81
2022-10-22T11:39:40.797Z,62.50
2022-10-22T11:42:16.199Z,62.29
2022-10-22T11:45:01.931Z,61.75
2022-10-22T11:47:33.589Z,61.62
2022-10-22T11:50:25.159Z,60.95
2022-10-22T11:53:00.637Z,60.24
2022-10-22T11:55:32.622Z,59.11
2022-10-22T11:58:01.961Z,59.28
2022-10-22T12:00:47.948Z,59.25
2022-10-22T12:03:44.521Z,59.37
2022-10-22T12:06:12.075Z,60.42
2022-10-22T12:08:46.582Z,60.02
2022-10-22T12:11:40.095Z,59.77
2022-10-22T12:14:29.783Z,59.93
2022-10-22T12:17:01.853Z,60.20
2022-10-22T12:19:40.588Z,60.92
2022-10-22T12:22:10.307Z,60.61
2022-10-22T12:24:40.749Z,61.08
2022-10-22T12:27:27.233Z,60.19
2022-10-22T12:29:56.965Z,60.79
2022-10-22T12:32:29.096Z,61.64
2022-10-22T12:34:55.940Z,62.14
2022-10-22T12:37:22.706Z,62.33
2022-10-22T12:39:49.545Z,62.47
2022-10-22T12:42:18.163Z,62.79
2022-10-22T12:44:45.146Z,63.59
2022-10-22T12:47:17.888Z,64.53
2022-10-22T12:49:48.620Z,65.98
2022-10-22T12:52:22.335Z,65.93
2022-10-22T12:54:55.101Z,66.53
2022-10-22T12:57:22.155Z,66.33
2022-10-22T12:59:51.846Z,67.00
2022-10-22T13:02:24.758Z,67.80
2022-10-22T13:05:19.540Z,67.17
2022-10-22T13:08:22.563Z,68.15
2022-10-22T13:10:52.266Z,69.30
2022-10-22T13:13:43.460Z,68.78
2022-10-22T13:16:19.875Z,69.07
2022-10-22T13:18:48.289Z,69.09
2022-10-22T13:21:27.034Z,69.62
2022-10-22T13:23:59.846Z,70.29
2022-10-22T13:26:35.924Z,70.75
2022-10-22T13:29:11.013Z,70.40
2022-10-22T13:31:46.215Z,70.51
2022-10-22T13:34:17.764Z,70.41
2022-10-22T13:36:44.731Z,70.19
2022-10-22T13:39:23.474Z,70.39
2022-10-22T13:41:50.806Z,71.29
2022-10-22T13:44:18.874Z,72.87
2022-10-22T13:46:47.426Z,71.54
2022-10-22T13:49:17.898Z,71.75
2022-10-22T13:51:45.109Z,71.47
2022-10-22T13:54:18.098Z,71.41
2022-10-22T13:56:45.133Z,71.74
2022-10-22T13:59:11.970Z,71.86
2022-10-22T14:01:39.149Z,71.53
2022-10-22T14:04:08.506Z,71.56
2022-10-22T14:09:12.024Z,71.55
2022-10-22T14:11:38.857Z,72.06
2022-10-22T14:14:08.919Z,72.11
2022-10-22T14:16:37.654Z,72.75
2022-10-22T14:19:07.037Z,73.18
2022-10-22T14:21:37.186Z,73.84
2022-10-22T14:24:06.131Z,74.52
2022-10-22T14:26:35.533Z,75.23
2022-10-22T14:29:11.505Z,75.20
2022-10-22T14:31:44.708Z,75.21
2022-10-22T14:34:14.611Z,75.64
2022-10-22T14:36:44.062Z,76.07
2022-10-22T14:39:11.776Z,76.58
2022-10-22T14:41:39.116Z,75.77
2022-10-22T14:44:06.050Z,76.56
2022-10-22T14:46:33.041Z,76.10
2022-10-22T14:49:00.006Z,77.46
2022-10-22T14:51:26.873Z,76.49
2022-10-22T14:53:53.801Z,76.45
2022-10-22T14:56:23.474Z,76.33
2022-10-22T14:58:50.935Z,76.54
2022-10-22T15:01:17.928Z,77.22
2022-10-22T15:03:44.902Z,77.41
2022-10-22T15:06:12.115Z,77.48
2022-10-22T15:08:39.530Z,78.23
2022-10-22T15:11:09.883Z,78.01
2022-10-22T15:13:37.075Z,79.42
2022-10-22T15:16:09.489Z,78.96
2022-10-22T15:18:37.439Z,80.03
2022-10-22T15:21:07.924Z,80.58
2022-10-22T15:23:36.378Z,79.93
2022-10-22T15:26:03.734Z,80.80
2022-10-22T15:28:30.835Z,80.67
2022-10-22T15:31:00.375Z,81.62
2022-10-22T15:33:30.263Z,82.53
2022-10-22T15:35:58.201Z,82.77
2022-10-22T15:41:04.583Z,84.45
2022-10-22T15:43:34.165Z,86.03
2022-10-22T15:46:09.488Z,87.15
2022-10-22T15:48:37.136Z,88.18
2022-10-22T15:51:15.710Z,89.54
2022-10-22T15:53:43.011Z,89.25
2022-10-22T15:56:12.079Z,90.21
2022-10-22T15:58:39.226Z,91.09
2022-10-22T16:01:10.197Z,91.04
2022-10-22T16:03:38.211Z,92.33
2022-10-22T16:06:06.460Z,93.51
2022-10-22T16:08:34.355Z,94.57
2022-10-22T16:11:01.792Z,94.57
2022-10-22T16:13:29.061Z,94.58
2022-10-22T16:15:56.087Z,94.20
2022-10-22T16:18:23.768Z,94.99
2022-10-22T16:20:50.946Z,94.36
2022-10-22T16:23:19.313Z,94.59
2022-10-22T16:25:46.820Z,96.13
2022-10-22T16:28:14.694Z,96.47
2022-10-22T16:30:42.616Z,96.08
2022-10-22T16:33:11.195Z,96.02
2022-10-22T16:35:43.020Z,96.64
2022-10-22T16:38:11.053Z,97.51
2022-10-22T16:40:45.615Z,97.39
2022-10-22T16:43:13.827Z,97.04
2022-10-22T16:45:48.226Z,97.10
2022-10-22T16:48:19.690Z,97.38
2022-10-22T16:50:47.021Z,97.83
2022-10-22T16:53:14.403Z,97.92
2022-10-22T16:55:42.559Z,97.84
2022-10-22T16:58:10.320Z,97.99
2022-10-22T17:00:41.885Z,98.83
2022-10-22T17:03:11.773Z,98.93
2022-10-22T17:05:44.292Z,98.83
2022-10-22T17:08:12.762Z,99.16
2022-10-22T17:10:41.908Z,99.46
2022-10-22T17:13:09.663Z,98.98
2022-10-22T17:15:38.224Z,99.15
2022-10-22T17:18:05.957Z,99.38
2022-10-22T17:20:35.413Z,100.00
2022-10-22T17:23:04.510Z,100.00
2022-10-22T17:25:42.306Z,100.00
2022-10-22T17:28:11.972Z,100.00
2022-10-22T17:30:41.059Z,100.00
2022-10-22T17:33:09.282Z,100.00
2022-10-22T17:35:41.801Z,100.00
2022-10-22T17:38:09.725Z,100.00
2022-10-22T17:40:39.101Z,100.00
2022-10-22T17:43:06.467Z,100.00
2022-10-22T17:45:35.458Z,100.00
2022-10-22T17:48:05.681Z,100.00
2022-10-22T17:50:35.273Z,100.00
2022-10-22T17:53:04.134Z,100.00
2022-10-22T17:55:35.104Z,100.00
2022-10-22T17:58:05.772Z,100.00
2022-10-22T18:00:43.341Z,100.00
2022-10-22T18:03:12.195Z,100.00
2022-10-22T18:05:40.283Z,100.00
2022-10-22T18:08:09.500Z,100.00
2022-10-22T18:10:40.728Z,100.00
2022-10-22T18:13:09.800Z,100.00
2022-10-22T18:15:37.641Z,100.00
2022-10-22T18:18:06.401Z,100.00
2022-10-22T18:20:34.829Z,99.70
2022-10-22T18:23:04.585Z,99.06
2022-10-22T18:28:02.491Z,100.00
2022-10-22T18:30:32.324Z,100.00
2022-10-22T18:33:00.581Z,100.00
2022-10-22T18:35:32.457Z,100.00
2022-10-22T18:38:00.827Z,100.00
2022-10-22T18:40:30.589Z,100.00
2022-10-22T18:42:58.696Z,100.00
2022-10-22T18:45:26.622Z,100.00
2022-10-22T18:47:55.387Z,100.00
2022-10-22T18:50:23.626Z,100.00
2022-10-22T18:52:52.405Z,100.00
2022-10-22T18:55:20.566Z,100.00
2022-10-22T18:57:48.791Z,100.00
2022-10-22T19:00:20.274Z,100.00
2022-10-22T19:02:48.923Z,100.00
2022-10-22T19:05:18.466Z,100.00
2022-10-22T19:07:47.441Z,100.00
2022-10-22T19:10:20.575Z,100.00
2022-10-22T19:12:50.092Z,100.00
2022-10-22T19:15:18.733Z,100.00
2022-10-22T19:17:46.744Z,100.00
2022-10-22T19:20:15.657Z,100.00
2022-10-22T19:22:47.517Z,100.00
2022-10-22T19:25:17.624Z,100.00
2022-10-22T19:27:45.932Z,100.00
2022-10-22T19:30:14.010Z,100.00
2022-10-22T19:32:42.744Z,100.00
2022-10-22T19:35:10.856Z,100.00
2022-10-22T19:37:39.975Z,100.00
2022-10-22T19:40:12.975Z,100.00
2022-10-22T19:42:41.138Z,100.00
2022-10-22T19:45:12.938Z,100.00
2022-10-22T19:47:42.192Z,100.00
2022-10-22T19:50:10.915Z,100.00
2022-10-22T19:52:38.414Z,100.00
2022-10-22T19:55:07.597Z,100.00
2022-10-22T19:57:36.367Z,100.00
2022-10-22T20:00:05.447Z,100.00
2022-10-22T20:02:33.284Z,100.00
2022-10-22T20:05:01.033Z,100.00
2022-10-22T20:07:29.276Z,100.00
2022-10-22T20:09:56.689Z,100.00
2022-10-22T20:12:24.916Z,100.00
2022-10-22T20:14:56.429Z,100.00
2022-10-22T20:17:25.254Z,100.00
2022-10-22T20:19:52.723Z,100.00
2022-10-22T20:22:20.123Z,100.00
2022-10-22T20:24:47.536Z,100.00
2022-10-22T20:27:14.962Z,100.00
2022-10-22T20:29:42.701Z,100.00
2022-10-22T20:32:10.059Z,100.00
2022-10-22T20:34:37.624Z,100.00
2022-10-22T20:37:04.874Z,100.00
2022-10-22T20:39:32.535Z,100.00
2022-10-22T20:41:59.963Z,100.00
2022-10-22T20:44:30.544Z,100.00
2022-10-22T20:49:33.268Z,100.00
2022-10-22T20:52:00.820Z,100.00
2022-10-22T20:54:28.190Z,100.00
2022-10-22T20:56:55.759Z,100.00
2022-10-22T20:59:23.719Z,100.00
2022-10-22T21:01:52.801Z,100.00
2022-10-22T21:04:21.328Z,100.00
2022-10-22T21:06:50.188Z,100.00
2022-10-22T21:09:17.120Z,100.00
2022-10-22T21:11:44.539Z,100.00
2022-10-22T21:14:13.621Z,100.00
2022-10-22T21:16:50.055Z,100.00
2022-10-22T21:19:21.912Z,100.00
2022-10-22T21:21:49.477Z,100.00
2022-10-22T21:24:16.392Z,100.00
2022-10-22T21:26:43.679Z,100.00
2022-10-22T21:29:12.233Z,100.00
2022-10-22T21:31:40.514Z,100.00
2022-10-22T21:34:07.470Z,100.00
2022-10-22T21:36:34.382Z,100.00
2022-10-22T21:39:02.153Z,100.00
2022-10-22T21:41:29.111Z,100.00
2022-10-22T21:43:56.157Z,100.00
2022-10-22T21:46:25.506Z,100.00
2022-10-22T21:48:54.626Z,100.00
2022-10-22T21:51:22.707Z,100.00
2022-10-22T21:53:49.605Z,100.00
2022-10-22T21:56:19.836Z,100.00
2022-10-22T21:58:47.403Z,100.00
2022-10-22T22:01:16.721Z,100.00
2022-10-22T22:03:46.139Z,100.00
2022-10-22T22:06:13.838Z,100.00
2022-10-22T22:08:41.012Z,100.00
2022-10-22T22:11:19.543Z,100.00
2022-10-22T22:13:48.769Z,100.00
2022-10-22T22:16:21.194Z,100.00
2022-10-22T22:18:51.067Z,100.00
2022-10-22T22:21:20.003Z,100.00
2022-10-22T22:23:49.398Z,100.00
2022-10-22T22:26:22.085Z,100.00
2022-10-22T22:28:51.941Z,100.00
2022-10-22T22:31:32.101Z,100.00
2022-10-22T22:33:59.961Z,100.00
2022-10-22T22:36:26.787Z,100.00
2022-10-22T22:38:55.999Z,100.00
2022-10-22T22:41:23.022Z,100.00
2022-10-22T22:43:49.825Z,100.00
2022-10-22T22:46:16.898Z,100.00
2022-10-22T22:48:43.727Z,100.00
2022-10-22T22:51:11.054Z,100.00
2022-10-22T22:53:37.926Z,100.00
2022-10-22T22:56:04.766Z,100.00
2022-10-22T22:58:31.597Z,100.00
2022-10-22T23:01:12.364Z,100.00
2022-10-22T23:03:39.236Z,100.00
2022-10-22T23:06:06.385Z,100.00
2022-10-22T23:08:33.857Z,100.00
2022-10-22T23:11:09.711Z,100.00
2022-10-22T23:13:37.227Z,100.00
2022-10-22T23:16:09.895Z,100.00
2022-10-22T23:18:36.732Z,100.00
2022-10-22T23:21:11.431Z,100.00
2022-10-22T23:23:38.207Z,100.00
2022-10-22T23:26:05.181Z,100.00
2022-10-22T23:28:32.472Z,100.00
2022-10-22T23:30:59.347Z,100.00
2022-10-22T23:33:26.679Z,100.00
2022-10-22T23:35:53.522Z,100.00
2022-10-22T23:38:20.582Z,100.00
2022-10-22T23:40:54.316Z,100.00
2022-10-22T23:43:21.094Z,100.00
2022-10-22T23:45:47.882Z,100.00
2022-10-22T23:48:17.130Z,100.00
2022-10-22T23:50:44.158Z,100.00
2022-10-22T23:53:11.112Z,100.00
2022-10-22T23:55:39.600Z,100.00
2022-10-22T23:58:06.817Z,100.00
